Time;durP1;ratioP1;P1;durP2;ratioP2;P2;SDS_P1;SDS_P2;PMS_P1;PMS_P2;Temp;Humidity;BMP_temperature;BMP_pressure;BME280_temperature;BME280_humidity;BME280_pressure;Samples;Min_cycle;Max_cycle;Signal;HPM_P1;HPM_P2
2023/07/18 00:02:10;;;;;;;4.70;2.92;;;;;;;25.10;54.88;99358.00;5026189;28;20060;-71
2023/07/18 00:04:37;;;;;;;4.22;3.55;;;;;;;25.14;54.84;99362.91;5025456;28;20056;-71
2023/07/18 00:07:04;;;;;;;3.92;3.28;;;;;;;25.18;54.53;99358.81;5026243;28;20049;-72
2023/07/18 00:09:31;;;;;;;5.35;3.50;;;;;;;25.18;54.36;99357.97;5024849;28;20104;-71
2023/07/18 00:11:59;;;;;;;4.75;3.50;;;;;;;25.19;54.32;99356.94;5025566;28;20427;-71
2023/07/18 00:14:27;;;;;;;4.93;3.35;;;;;;;25.12;54.51;99359.53;5025615;28;20076;-71
2023/07/18 00:16:55;;;;;;;3.63;3.08;;;;;;;25.10;54.36;99352.59;5025784;28;20054;-71
2023/07/18 00:19:22;;;;;;;5.63;3.53;;;;;;;25.10;54.63;99360.72;5025233;28;20041;-71
2023/07/18 00:21:50;;;;;;;3.63;2.72;;;;;;;24.94;54.22;99320.97;5025764;28;20073;-71
2023/07/18 00:24:16;;;;;;;5.25;3.15;;;;;;;25.10;54.43;99345.31;5025598;28;20048;-71
2023/07/18 00:26:43;;;;;;;4.82;3.20;;;;;;;24.18;54.46;99205.94;5025764;28;20096;-72
2023/07/18 00:29:10;;;;;;;4.25;3.05;;;;;;;25.04;54.41;99354.16;5024679;28;20344;-71
2023/07/18 00:31:36;;;;;;;4.38;3.30;;;;;;;25.07;54.47;99361.09;5025584;28;20371;-72
2023/07/18 00:34:06;;;;;;;3.90;2.88;;;;;;;25.10;54.22;99353.44;5024888;28;20328;-72
2023/07/18 00:36:32;;;;;;;5.43;3.17;;;;;;;24.56;54.27;99269.28;5025402;28;20038;-71
2023/07/18 00:38:59;;;;;;;3.78;3.03;;;;;;;25.09;54.57;99357.16;5040748;28;20045;-71
2023/07/18 00:41:26;;;;;;;5.13;3.25;;;;;;;25.11;54.55;99349.69;5011819;28;20159;-71
2023/07/18 00:43:53;;;;;;;3.70;3.20;;;;;;;25.12;54.47;99354.09;5045744;28;20041;-71
2023/07/18 00:46:21;;;;;;;5.43;3.55;;;;;;;25.13;54.35;99355.78;5027798;28;20108;-72
2023/07/18 00:48:49;;;;;;;3.95;3.38;;;;;;;24.98;54.24;99343.97;5045742;28;20037;-71
2023/07/18 00:51:17;;;;;;;4.20;3.03;;;;;;;24.81;54.34;99326.94;5045597;28;20090;-71
2023/07/18 00:53:44;;;;;;;4.30;3.42;;;;;;;24.57;54.65;99303.47;5045328;28;20140;-72
2023/07/18 00:56:11;;;;;;;4.88;3.33;;;;;;;25.03;54.54;99376.84;5045294;28;20083;-72
2023/07/18 00:58:38;;;;;;;5.10;3.20;;;;;;;25.11;54.34;99371.41;5044854;28;20204;-71
2023/07/18 01:01:06;;;;;;;4.20;3.30;;;;;;;25.11;54.55;99367.84;5027669;28;20046;-72
2023/07/18 01:03:34;;;;;;;3.92;3.30;;;;;;;25.12;54.40;99366.81;5027554;28;20038;-72
2023/07/18 01:06:01;;;;;;;3.65;2.88;;;;;;;25.17;54.22;99369.84;5045144;28;20037;-72
2023/07/18 01:08:30;;;;;;;3.38;2.80;;;;;;;25.10;54.35;99375.13;5045241;28;20224;-72
2023/07/18 01:10:57;;;;;;;4.63;3.50;;;;;;;25.07;54.60;99370.06;5045075;28;20038;-72
2023/07/18 01:13:24;;;;;;;4.57;3.40;;;;;;;25.16;54.27;99362.72;5045117;28;20042;-72
2023/07/18 01:15:51;;;;;;;5.97;4.00;;;;;;;25.13;54.59;99366.63;5045328;28;20096;-71
2023/07/18 01:18:18;;;;;;;4.50;3.55;;;;;;;25.11;54.80;99371.41;5048382;28;20045;-71
2023/07/18 01:20:45;;;;;;;4.25;3.72;;;;;;;25.04;55.43;99370.41;5048917;28;20040;-71
2023/07/18 01:23:14;;;;;;;6.10;4.38;;;;;;;25.10;55.40;99379.72;5031768;28;20064;-71
2023/07/18 01:25:42;;;;;;;4.72;3.83;;;;;;;25.04;55.55;99381.25;5048210;28;20045;-72
2023/07/18 01:28:10;;;;;;;4.57;3.70;;;;;;;25.03;55.77;99392.28;5048169;28;20037;-72
2023/07/18 01:30:37;;;;;;;4.50;3.85;;;;;;;24.51;55.33;99293.34;5048436;28;20193;-72
2023/07/18 01:33:04;;;;;;;6.00;4.07;;;;;;;25.12;55.57;99399.34;5047913;28;20050;-72
2023/07/18 01:35:31;;;;;;;7.70;4.72;;;;;;;25.12;55.21;99408.34;5048322;28;20103;-71
2023/07/18 01:37:58;;;;;;;5.90;4.25;;;;;;;25.10;55.51;99409.53;5047838;28;20096;-71
2023/07/18 01:40:27;;;;;;;5.95;3.63;;;;;;;25.00;55.32;99406.16;5030562;28;20201;-71
2023/07/18 01:42:55;;;;;;;4.80;3.80;;;;;;;24.96;55.51;99406.50;5048178;28;20045;-72
2023/07/18 01:45:24;;;;;;;4.82;3.83;;;;;;;24.86;55.72;99378.75;5048383;28;20049;-71
2023/07/18 01:47:53;;;;;;;6.10;4.32;;;;;;;24.94;55.16;99388.72;5030195;28;20061;-72
2023/07/18 01:50:20;;;;;;;5.32;4.82;;;;;;;23.93;54.86;99253.88;5048382;28;20216;-72
2023/07/18 01:52:48;;;;;;;5.30;4.80;;;;;;;24.86;55.10;99402.31;5046997;28;20100;-72
2023/07/18 01:55:15;;;;;;;6.68;4.78;;;;;;;25.04;54.11;99429.22;5030382;28;20041;-72
2023/07/18 01:57:47;;;;;;;5.20;3.95;;;;;;;24.80;54.36;99411.13;5047618;28;20041;-71
2023/07/18 02:00:18;;;;;;;6.63;4.78;;;;;;;24.85;55.10;99433.16;5048060;28;20067;-72
2023/07/18 02:02:47;;;;;;;4.60;4.05;;;;;;;24.80;56.15;99421.97;5047785;28;20045;-72
2023/07/18 02:05:15;;;;;;;4.65;3.88;;;;;;;24.89;56.29;99416.34;5047988;28;20053;-72
2023/07/18 02:07:42;;;;;;;6.70;4.75;;;;;;;24.88;57.74;99424.66;5047223;28;20049;-72
2023/07/18 02:10:09;;;;;;;5.47;4.68;;;;;;;24.88;57.58;99432.81;5013723;28;20148;-72
2023/07/18 02:12:36;;;;;;;5.25;4.30;;;;;;;24.63;57.26;99403.03;5030403;28;20095;-72
2023/07/18 02:15:06;;;;;;;5.78;4.70;;;;;;;24.79;57.84;99428.41;5047556;28;20068;-72
2023/07/18 02:17:34;;;;;;;8.48;4.38;;;;;;;24.41;58.13;99386.66;5047713;28;20064;-72
2023/07/18 02:20:05;;;;;;;5.30;4.07;;;;;;;24.60;58.15;99406.09;5029960;28;20041;-72
2023/07/18 02:22:33;;;;;;;7.18;4.10;;;;;;;24.74;58.24;99441.66;5047306;28;20114;-72
2023/07/18 02:25:00;;;;;;;4.63;4.13;;;;;;;24.66;58.01;99436.25;5030294;28;20053;-72
2023/07/18 02:27:27;;;;;;;5.80;4.20;;;;;;;24.45;57.92;99409.66;5047123;28;20049;-72
2023/07/18 02:29:54;;;;;;;5.68;4.47;;;;;;;24.32;58.02;99383.97;5047029;28;20087;-72
2023/07/18 02:32:23;;;;;;;6.13;4.45;;;;;;;24.62;56.31;99435.72;5030006;28;20049;-72
2023/07/18 02:34:50;;;;;;;6.43;4.50;;;;;;;24.51;54.65;99444.19;5046839;28;20359;-72
2023/07/18 02:37:16;;;;;;;5.88;4.72;;;;;;;24.55;53.21;99456.38;5046648;28;20041;-72
2023/07/18 02:39:44;;;;;;;5.68;4.60;;;;;;;24.58;51.58;99456.03;5029395;28;20347;-72
2023/07/18 02:42:12;;;;;;;5.25;4.40;;;;;;;24.47;51.78;99451.81;5029079;28;20232;-72
2023/07/18 02:44:38;;;;;;;6.40;4.50;;;;;;;24.29;52.05;99419.50;5029365;28;20075;-72
2023/07/18 02:47:06;;;;;;;6.45;4.25;;;;;;;24.43;50.99;99439.63;5046722;28;20049;-73
2023/07/18 02:49:34;;;;;;;5.03;4.30;;;;;;;24.43;50.66;99447.75;5047160;28;20060;-73
2023/07/18 02:52:01;;;;;;;6.45;4.75;;;;;;;24.44;50.63;99454.03;5029779;28;20041;-72
2023/07/18 02:54:28;;;;;;;6.78;4.60;;;;;;;24.33;49.41;99466.06;5045638;28;20061;-72
2023/07/18 02:56:56;;;;;;;4.50;3.63;;;;;;;24.36;49.03;99467.56;5029223;28;20037;-72
2023/07/18 02:59:22;;;;;;;5.55;4.15;;;;;;;24.38;49.22;99471.81;5046468;28;20045;-72
2023/07/18 03:01:50;;;;;;;5.72;4.18;;;;;;;23.70;48.53;99355.72;5029063;28;20045;-72
2023/07/18 03:04:17;;;;;;;6.40;4.20;;;;;;;24.26;47.81;99456.91;5028998;28;20049;-72
2023/07/18 03:06:47;;;;;;;4.85;4.35;;;;;;;24.26;49.16;99465.03;5029514;28;20154;-72
2023/07/18 03:09:16;;;;;;;5.32;4.10;;;;;;;23.25;49.86;99302.91;5028653;28;20361;-71
2023/07/18 03:11:42;;;;;;;5.03;4.50;;;;;;;23.68;49.27;99414.56;5045334;28;20034;-72
2023/07/18 03:14:11;;;;;;;4.43;3.80;;;;;;;24.16;49.76;99477.91;5028860;28;20332;-73
2023/07/18 03:16:38;;;;;;;6.70;4.45;;;;;;;24.11;49.37;99485.69;5029603;28;20041;-72
2023/07/18 03:19:05;;;;;;;9.02;4.28;;;;;;;23.80;50.15;99458.38;5045942;28;20107;-72
2023/07/18 03:21:32;;;;;;;6.18;4.28;;;;;;;24.15;50.97;99506.84;5046009;28;20055;-72
2023/07/18 03:24:00;;;;;;;5.25;3.83;;;;;;;22.25;51.36;99186.72;5046250;28;20049;-72
2023/07/18 03:26:27;;;;;;;6.63;4.28;;;;;;;24.08;52.32;99494.13;5028671;28;20041;-73
2023/07/18 03:28:55;;;;;;;6.85;5.15;;;;;;;24.01;52.76;99496.66;5046435;28;20041;-73
2023/07/18 03:31:22;;;;;;;6.95;4.65;;;;;;;23.77;52.45;99454.13;5046079;28;20076;-72
2023/07/18 03:33:49;;;;;;;5.03;4.32;;;;;;;23.98;51.91;99510.53;5028447;28;20336;-72
2023/07/18 03:36:20;;;;;;;4.90;4.30;;;;;;;23.80;51.32;99482.72;5028432;28;20037;-72
2023/07/18 03:38:47;;;;;;;8.43;5.20;;;;;;;23.89;52.44;99506.09;5024554;28;20066;-72
2023/07/18 03:41:15;;;;;;;5.88;4.40;;;;;;;23.90;52.31;99505.06;5025011;28;20046;-72
2023/07/18 03:43:42;;;;;;;8.60;6.10;;;;;;;23.89;51.96;99492.56;5026366;28;20069;-73
2023/07/18 03:46:08;;;;;;;8.48;5.18;;;;;;;23.87;50.82;99500.00;5026407;28;20141;-72
2023/07/18 03:48:37;;;;;;;6.90;5.00;;;;;;;23.84;50.74;99501.19;5025513;28;20304;-72
2023/07/18 03:51:05;;;;;;;7.35;4.75;;;;;;;23.80;50.10;99491.69;5025192;28;20109;-72
2023/07/18 03:53:32;;;;;;;6.47;4.05;;;;;;;23.82;50.48;99492.38;5026041;28;20355;-72
2023/07/18 03:56:03;;;;;;;6.28;4.97;;;;;;;23.82;50.50;99500.50;5024923;28;20042;-72
2023/07/18 03:58:32;;;;;;;5.70;4.78;;;;;;;23.78;49.69;99501.84;5026294;28;20052;-72
2023/07/18 04:00:58;;;;;;;6.95;5.20;;;;;;;23.54;49.60;99459.34;5025637;28;20042;-71
2023/07/18 04:03:25;;;;;;;5.60;4.35;;;;;;;23.44;49.25;99441.56;5025952;28;20046;-71
2023/07/18 04:05:52;;;;;;;6.25;4.40;;;;;;;23.83;49.52;99504.06;5025872;28;20088;-72
2023/07/18 04:08:19;;;;;;;5.57;4.40;;;;;;;23.67;49.11;99480.50;5024783;28;20240;-72
2023/07/18 04:10:46;;;;;;;6.07;4.40;;;;;;;23.43;48.88;99466.91;5025992;28;20044;-72
2023/07/18 04:13:12;;;;;;;5.10;4.60;;;;;;;23.81;48.35;99517.75;5026377;28;20053;-72
2023/07/18 04:15:41;;;;;;;6.95;5.10;;;;;;;23.83;48.87;99523.00;5025801;28;20053;-72
2023/07/18 04:18:09;;;;;;;6.30;4.43;;;;;;;23.64;48.76;99505.19;5025830;28;20046;-72
2023/07/18 04:20:35;;;;;;;6.88;5.32;;;;;;;23.71;48.50;99527.00;5008784;28;20038;-72
2023/07/18 04:23:02;;;;;;;6.18;4.80;;;;;;;23.76;49.15;99530.91;5026099;28;20054;-72
2023/07/18 04:25:34;;;;;;;7.30;4.60;;;;;;;23.78;49.07;99534.31;5024701;28;20077;-72
2023/07/18 04:28:01;;;;;;;5.55;4.47;;;;;;;23.29;48.53;99462.97;5024596;28;20044;-72
2023/07/18 04:30:28;;;;;;;6.72;4.57;;;;;;;23.71;47.86;99537.84;5024603;28;20045;-72
2023/07/18 04:32:56;;;;;;;8.05;4.63;;;;;;;23.35;46.89;99473.97;5025414;28;20046;-71
2023/07/18 04:35:23;;;;;;;6.45;4.68;;;;;;;23.64;47.43;99534.94;5024361;28;20046;-72
2023/07/18 04:37:50;;;;;;;7.90;4.93;;;;;;;22.79;47.25;99601.50;5031342;28;20099;-71
2023/07/18 04:40:17;;;;;;;6.10;4.20;;;;;;;23.62;46.78;99531.56;5045353;28;20034;-71
2023/07/18 04:42:43;;;;;;;7.28;4.90;;;;;;;23.65;46.02;99533.94;5044615;28;20076;-71
2023/07/18 04:45:11;;;;;;;7.78;5.57;;;;;;;23.61;46.09;99533.41;5045000;28;20240;-71
2023/07/18 04:47:37;;;;;;;6.70;5.10;;;;;;;22.12;46.97;99302.41;5045514;28;20099;-71
2023/07/18 04:50:10;;;;;;;13.38;5.57;;;;;;;22.57;46.29;99359.75;5045891;28;20216;-71
2023/07/18 04:52:37;;;;;;;7.95;5.18;;;;;;;23.01;45.36;99435.28;5031610;28;20201;-71
2023/07/18 04:55:05;;;;;;;7.18;5.25;;;;;;;23.69;45.65;99543.41;5049003;28;20216;-71
2023/07/18 04:57:31;;;;;;;6.47;4.68;;;;;;;23.69;45.01;99546.13;5015355;28;20038;-71
2023/07/18 04:59:58;;;;;;;5.55;4.68;;;;;;;23.69;45.76;99554.25;5048455;28;20107;-71
2023/07/18 05:02:25;;;;;;;6.28;4.28;;;;;;;23.41;45.24;99506.78;5014967;28;20041;-71
2023/07/18 05:04:52;;;;;;;5.90;4.07;;;;;;;23.65;43.79;99552.88;5048832;28;20052;-72
2023/07/18 05:07:20;;;;;;;4.43;4.03;;;;;;;23.47;43.80;99525.91;5048749;28;20119;-71
2023/07/18 05:09:47;;;;;;;5.07;4.07;;;;;;;23.64;43.84;99551.19;5031819;28;20045;-72
2023/07/18 05:12:13;;;;;;;6.72;4.38;;;;;;;23.63;43.68;99554.88;5048374;28;20068;-72
2023/07/18 05:14:40;;;;;;;5.40;3.90;;;;;;;23.39;43.95;99517.78;5031796;28;20099;-72
2023/07/18 05:17:07;;;;;;;5.43;4.38;;;;;;;23.63;42.68;99563.00;5031754;28;20041;-72
2023/07/18 05:19:34;;;;;;;5.68;3.80;;;;;;;23.66;43.03;99568.94;5014691;28;20080;-72
2023/07/18 05:22:01;;;;;;;6.50;4.25;;;;;;;23.69;42.35;99575.88;5048209;28;20225;-72
2023/07/18 05:24:29;;;;;;;4.85;3.97;;;;;;;23.14;41.70;99494.28;5048497;28;20099;-72
2023/07/18 05:26:56;;;;;;;10.98;4.72;;;;;;;23.59;41.72;99575.16;5048459;28;20045;-72
2023/07/18 05:29:24;;;;;;;6.50;5.32;;;;;;;23.62;42.13;99570.28;5048409;28;20185;-72
2023/07/18 05:31:51;;;;;;;6.35;3.95;;;;;;;23.60;41.88;99563.34;5048377;28;20096;-72
2023/07/18 05:34:17;;;;;;;6.25;4.97;;;;;;;23.61;42.47;99565.88;5031432;28;20041;-72
2023/07/18 05:36:44;;;;;;;5.10;3.92;;;;;;;23.64;42.78;99567.41;5030528;28;20052;-71
2023/07/18 05:39:11;;;;;;;7.35;4.72;;;;;;;23.69;42.55;99570.47;5027076;28;20194;-72
2023/07/18 05:41:39;;;;;;;9.10;6.18;;;;;;;23.69;41.80;99570.47;5027202;28;20356;-72
2023/07/18 05:44:06;;;;;;;6.55;4.45;;;;;;;23.77;42.87;99575.91;5028533;28;20061;-72
2023/07/18 05:46:32;;;;;;;5.38;4.53;;;;;;;23.77;42.06;99580.47;5027408;28;20045;-72
2023/07/18 05:48:59;;;;;;;6.78;5.28;;;;;;;23.77;41.37;99578.63;5027970;28;20045;-72
2023/07/18 05:51:26;;;;;;;5.25;4.57;;;;;;;22.47;40.71;99363.53;5027337;28;20049;-72
2023/07/18 05:53:53;;;;;;;5.15;4.03;;;;;;;23.60;41.13;99547.94;5027559;28;20041;-71
2023/07/18 05:56:20;;;;;;;6.45;4.50;;;;;;;23.48;41.10;99522.19;5010933;28;20042;-72
2023/07/18 05:58:49;;;;;;;7.88;5.15;;;;;;;23.83;41.49;99574.41;5026826;28;20049;-72
2023/07/18 06:01:15;;;;;;;7.38;5.18;;;;;;;23.84;41.14;99587.78;5028194;28;20233;-72
2023/07/18 06:03:42;;;;;;;8.18;5.53;;;;;;;23.89;42.05;99585.44;5027233;28;20055;-71
2023/07/18 06:06:09;;;;;;;8.20;5.75;;;;;;;23.91;42.40;99586.13;5026859;28;20053;-72
2023/07/18 06:08:37;;;;;;;7.55;5.15;;;;;;;23.93;41.51;99585.94;5027984;28;20041;-72
2023/07/18 06:11:04;;;;;;;7.60;4.45;;;;;;;23.88;41.09;99589.16;5027379;28;20034;-72
2023/07/18 06:13:30;;;;;;;6.38;4.85;;;;;;;23.93;42.03;99597.63;5026805;28;20049;-71
2023/07/18 06:15:59;;;;;;;8.00;5.05;;;;;;;23.95;41.27;99595.59;5027335;28;20301;-71
2023/07/18 06:18:26;;;;;;;6.07;4.43;;;;;;;23.60;41.49;99537.13;5026725;28;20045;-71
2023/07/18 06:20:52;;;;;;;6.63;4.75;;;;;;;23.98;41.45;99591.75;5027693;28;20069;-71
2023/07/18 06:23:19;;;;;;;5.65;4.70;;;;;;;24.00;41.86;99595.97;5027705;28;20045;-71
2023/07/18 06:25:46;;;;;;;5.20;4.43;;;;;;;24.00;40.58;99590.56;5027210;28;20042;-71
2023/07/18 06:28:13;;;;;;;6.28;4.78;;;;;;;24.03;41.44;99596.66;5027384;28;20087;-71
2023/07/18 06:30:40;;;;;;;8.10;5.15;;;;;;;23.97;39.65;99593.59;5026505;28;20044;-71
2023/07/18 06:33:08;;;;;;;7.55;4.53;;;;;;;23.96;39.70;99589.16;5009881;28;20038;-71
2023/07/18 06:35:35;;;;;;;7.85;5.03;;;;;;;24.02;40.47;99590.41;5026856;28;20038;-71
2023/07/18 06:38:01;;;;;;;6.70;4.78;;;;;;;23.92;40.80;99570.72;5034633;28;20046;-71
2023/07/18 06:40:28;;;;;;;7.78;4.32;;;;;;;24.07;40.88;99595.31;5029305;28;20044;-71
2023/07/18 06:42:55;;;;;;;6.72;4.70;;;;;;;23.20;40.50;99445.84;5029159;28;20042;-71
2023/07/18 06:45:21;;;;;;;6.40;4.75;;;;;;;24.08;40.27;99597.03;5047208;28;20120;-71
2023/07/18 06:47:48;;;;;;;8.52;5.18;;;;;;;23.80;39.44;99540.41;5029259;28;20043;-71
2023/07/18 06:50:16;;;;;;;7.40;4.43;;;;;;;24.11;40.03;99599.41;5046527;28;20045;-71
2023/07/18 06:52:43;;;;;;;7.78;5.32;;;;;;;23.19;39.42;99427.91;5046802;28;20046;-71
2023/07/18 06:55:10;;;;;;;7.90;4.68;;;;;;;24.29;40.44;99597.41;5029450;28;20064;-72
2023/07/18 06:57:38;;;;;;;6.05;4.60;;;;;;;24.36;40.47;99600.28;5046902;28;20049;-71
2023/07/18 07:00:07;;;;;;;6.15;4.70;;;;;;;24.36;39.29;99594.88;5012756;28;20045;-71
2023/07/18 07:02:34;;;;;;;7.82;4.50;;;;;;;24.40;40.04;99591.66;5012929;28;20045;-72
2023/07/18 07:05:00;;;;;;;6.57;5.10;;;;;;;24.50;40.09;99589.66;5046250;28;20312;-72
2023/07/18 07:07:29;;;;;;;7.78;5.65;;;;;;;24.19;40.26;99526.31;5028881;28;20048;-71
2023/07/18 07:09:57;;;;;;;7.50;5.53;;;;;;;24.69;40.03;99583.09;5046496;28;20299;-72
2023/07/18 07:12:23;;;;;;;7.85;6.40;;;;;;;24.79;39.41;99591.03;5028712;28;20236;-71
2023/07/18 07:14:50;;;;;;;7.32;6.13;;;;;;;24.92;40.31;99588.66;5046339;28;20076;-71
2023/07/18 07:17:17;;;;;;;7.78;6.20;;;;;;;25.12;39.44;99592.72;5045857;28;20284;-72
2023/07/18 07:19:45;;;;;;;8.73;5.35;;;;;;;25.30;39.98;99597.09;5046255;28;20076;-72
2023/07/18 07:22:14;;;;;;;6.40;5.05;;;;;;;25.51;38.79;99583.84;5045948;28;20045;-72
2023/07/18 07:24:42;;;;;;;7.40;5.03;;;;;;;25.69;38.18;99598.03;5046291;28;20045;-71
2023/07/18 07:27:10;;;;;;;6.35;4.95;;;;;;;25.94;37.30;99587.06;5029000;28;20310;-72
2023/07/18 07:29:38;;;;;;;6.97;5.10;;;;;;;26.13;36.99;99582.06;5028379;28;20059;-72
2023/07/18 07:32:06;;;;;;;6.50;4.47;;;;;;;26.26;36.44;99578.75;5045946;28;20177;-72
2023/07/18 07:34:33;;;;;;;11.02;5.30;;;;;;;26.32;35.39;99547.31;5028704;28;20056;-71
2023/07/18 07:36:59;;;;;;;5.78;4.45;;;;;;;26.65;34.44;99566.94;5045917;28;20087;-72
2023/07/18 07:39:26;;;;;;;5.10;4.05;;;;;;;26.82;34.39;99582.09;5024829;28;20367;-71
2023/07/18 07:41:55;;;;;;;7.55;4.32;;;;;;;26.55;33.25;99516.38;5025235;28;20096;-72
2023/07/18 07:44:22;;;;;;;9.15;4.65;;;;;;;26.83;32.44;99575.63;5024914;28;20046;-72
2023/07/18 07:46:49;;;;;;;5.05;3.97;;;;;;;27.10;32.66;99572.31;5026025;28;20053;-72
2023/07/18 07:49:16;;;;;;;6.63;4.10;;;;;;;27.29;32.83;99562.78;5026129;28;20091;-72
2023/07/18 07:51:43;;;;;;;5.50;3.72;;;;;;;27.39;32.32;99568.78;5024854;28;20097;-72
2023/07/18 07:54:10;;;;;;;5.88;4.75;;;;;;;27.58;32.45;99561.09;5025684;28;20049;-71
2023/07/18 07:56:36;;;;;;;6.82;3.58;;;;;;;27.68;31.67;99567.13;5024832;28;20217;-72
2023/07/18 07:59:04;;;;;;;6.70;4.07;;;;;;;27.88;31.82;99565.53;5024745;28;20084;-72
2023/07/18 08:01:31;;;;;;;7.63;3.40;;;;;;;27.55;30.85;99521.47;5025808;28;20053;-71
2023/07/18 08:03:58;;;;;;;7.13;3.80;;;;;;;27.65;30.90;99511.16;5025699;28;20045;-72
2023/07/18 08:06:24;;;;;;;7.95;5.05;;;;;;;28.09;30.37;99562.00;5025101;28;20049;-72
2023/07/18 08:08:51;;;;;;;6.95;4.45;;;;;;;28.16;29.38;99554.75;5025345;28;20053;-73
2023/07/18 08:11:18;;;;;;;8.82;4.85;;;;;;;28.26;29.90;99551.69;5024587;28;20084;-72
2023/07/18 08:13:45;;;;;;;8.13;3.85;;;;;;;27.74;29.97;99443.84;5024629;28;20312;-72
2023/07/18 08:16:14;;;;;;;6.80;3.65;;;;;;;28.37;29.39;99552.03;5025127;28;20185;-72
2023/07/18 08:18:41;;;;;;;5.88;3.75;;;;;;;28.46;28.81;99554.66;5025589;28;20057;-73
2023/07/18 08:21:08;;;;;;;5.85;4.00;;;;;;;28.69;29.46;99544.38;5025863;28;20275;-72
2023/07/18 08:23:35;;;;;;;5.90;3.60;;;;;;;28.58;29.26;99510.31;5025070;28;20248;-71
2023/07/18 08:26:02;;;;;;;6.38;3.20;;;;;;;28.05;29.59;99468.91;5026184;28;20088;-72
2023/07/18 08:28:29;;;;;;;5.10;3.53;;;;;;;27.90;29.63;99461.84;5029880;28;20038;-72
2023/07/18 08:30:55;;;;;;;6.40;3.60;;;;;;;28.43;29.45;99528.63;5029547;28;20109;-72
2023/07/18 08:33:26;;;;;;;7.90;3.95;;;;;;;28.47;29.42;99550.91;5028308;28;20050;-71
2023/07/18 08:35:53;;;;;;;4.53;3.40;;;;;;;28.67;29.39;99541.84;5028581;28;20320;-72
2023/07/18 08:38:20;;;;;;;6.32;3.45;;;;;;;28.53;29.08;99547.38;5028141;28;20061;-71
2023/07/18 08:40:48;;;;;;;4.53;3.55;;;;;;;28.51;28.50;99541.28;5028131;28;20038;-71
2023/07/18 08:43:16;;;;;;;5.57;3.53;;;;;;;28.65;28.81;99513.94;5029591;28;20041;-72
2023/07/18 08:45:43;;;;;;;4.97;3.47;;;;;;;28.62;27.93;99535.31;5028304;28;20050;-72
2023/07/18 08:48:12;;;;;;;5.32;3.30;;;;;;;28.29;28.48;99494.94;5029521;28;20071;-73
2023/07/18 08:50:41;;;;;;;7.75;3.50;;;;;;;28.88;28.74;99529.22;5029549;28;20046;-72
2023/07/18 08:53:08;;;;;;;7.10;3.38;;;;;;;28.55;27.35;99507.13;5028343;28;20077;-72
2023/07/18 08:55:36;;;;;;;5.07;3.53;;;;;;;28.17;28.22;99441.16;5028416;28;20092;-72
2023/07/18 08:58:03;;;;;;;8.48;4.28;;;;;;;28.76;28.29;99523.47;5029174;28;20105;-72
2023/07/18 09:00:30;;;;;;;7.72;4.28;;;;;;;28.89;28.44;99520.84;5028047;28;20041;-72
2023/07/18 09:02:57;;;;;;;4.80;3.42;;;;;;;28.77;27.34;99519.69;5028050;28;20050;-72
2023/07/18 09:05:32;;;;;;;6.20;3.53;;;;;;;28.51;27.91;99448.59;5029264;28;20046;-72
2023/07/18 09:08:02;;;;;;;6.78;3.92;;;;;;;28.96;27.16;99509.97;5028644;28;20125;-71
2023/07/18 09:10:29;;;;;;;4.93;3.72;;;;;;;28.96;27.32;99504.53;5029201;28;20038;-71
2023/07/18 09:12:59;;;;;;;5.18;3.28;;;;;;;28.77;27.98;99456.97;5028172;28;20038;-71
2023/07/18 09:15:26;;;;;;;4.85;2.92;;;;;;;28.96;27.02;99504.53;5027939;28;20054;-70
2023/07/18 09:17:55;;;;;;;6.35;3.72;;;;;;;29.32;27.91;99501.63;5028492;28;20205;-71
2023/07/18 09:20:22;;;;;;;8.63;4.28;;;;;;;29.30;26.68;99511.91;5027536;28;20038;-71
2023/07/18 09:22:50;;;;;;;5.15;3.63;;;;;;;29.06;26.99;99497.69;5027055;28;20046;-71
2023/07/18 09:25:18;;;;;;;5.35;3.30;;;;;;;28.97;26.91;99452.50;5028097;28;20049;-72
2023/07/18 09:27:45;;;;;;;5.10;3.05;;;;;;;29.20;26.78;99484.13;5027371;28;20038;-71
2023/07/18 09:30:12;;;;;;;8.63;4.75;;;;;;;29.42;26.79;99474.78;5027341;28;20073;-72
2023/07/18 09:32:39;;;;;;;21.20;9.45;;;;;;;29.45;25.53;99482.59;5028484;28;20088;-72
2023/07/18 09:35:07;;;;;;;11.27;5.00;;;;;;;29.55;25.94;99471.28;5028503;28;20042;-72
2023/07/18 09:37:45;;;;;;;8.55;4.00;;;;;;;29.36;26.23;99426.47;5025293;28;20062;-73
2023/07/18 09:40:13;;;;;;;5.28;3.78;;;;;;;29.54;25.97;99437.66;5027975;28;20068;-72
2023/07/18 09:42:43;;;;;;;5.75;4.05;;;;;;;29.78;26.19;99465.50;5027003;28;20080;-72
2023/07/18 09:45:11;;;;;;;4.85;3.40;;;;;;;29.82;26.90;99461.31;5028029;28;20041;-72
2023/07/18 09:47:39;;;;;;;5.50;3.10;;;;;;;29.60;26.91;99456.00;5027887;28;20084;-72
2023/07/18 09:50:06;;;;;;;5.40;4.00;;;;;;;29.62;27.14;99456.63;5028353;28;20049;-72
2023/07/18 09:52:36;;;;;;;4.80;3.50;;;;;;;29.63;25.71;99447.41;5028290;28;20042;-72
2023/07/18 09:55:07;;;;;;;4.57;3.22;;;;;;;29.77;26.28;99431.03;5026923;28;20352;-72
2023/07/18 09:57:37;;;;;;;6.97;3.55;;;;;;;29.87;26.33;99407.75;5027766;28;20050;-72
2023/07/18 10:00:11;;;;;;;5.63;3.60;;;;;;;30.08;26.31;99427.72;5028172;28;20045;-72
2023/07/18 10:02:39;;;;;;;5.72;3.75;;;;;;;30.14;26.09;99403.19;5027862;28;20033;-72
2023/07/18 10:05:09;;;;;;;5.70;4.20;;;;;;;30.18;26.07;99420.84;5027875;28;20037;-72
2023/07/18 10:07:37;;;;;;;5.38;3.60;;;;;;;30.00;26.32;99415.97;5027727;28;20050;-72
2023/07/18 10:10:07;;;;;;;10.48;3.80;;;;;;;30.18;26.46;99412.63;5026556;28;20431;-72
2023/07/18 10:12:36;;;;;;;5.43;4.10;;;;;;;30.17;25.88;99410.97;5027294;28;20046;-72
2023/07/18 10:15:03;;;;;;;7.47;5.13;;;;;;;30.38;26.18;99411.81;5027874;28;20065;-72
2023/07/18 10:17:37;;;;;;;7.18;5.93;;;;;;;30.20;26.11;99375.00;5027640;28;20065;-71
2023/07/18 10:20:11;;;;;;;5.07;4.13;;;;;;;30.31;27.35;99411.84;5026294;28;20101;-72
2023/07/18 10:22:47;;;;;;;5.70;4.03;;;;;;;30.11;27.27;99400.81;5027412;28;20042;-71
2023/07/18 10:25:14;;;;;;;5.38;3.53;;;;;;;30.04;26.88;99400.81;5027042;28;20046;-71
2023/07/18 10:27:43;;;;;;;5.72;4.28;;;;;;;29.77;27.43;99343.63;5026091;28;20052;-71
2023/07/18 10:30:12;;;;;;;5.70;4.15;;;;;;;29.81;26.52;99351.22;5027319;28;20049;-71
2023/07/18 10:32:42;;;;;;;5.57;3.58;;;;;;;30.15;26.99;99371.22;5027029;28;20048;-71
2023/07/18 10:35:11;;;;;;;4.68;3.22;;;;;;;30.11;27.81;99357.09;5026947;28;20053;-72
2023/07/18 10:37:38;;;;;;;5.32;3.33;;;;;;;29.82;26.90;99317.38;5025943;28;20061;-72
2023/07/18 10:40:08;;;;;;;4.57;3.58;;;;;;;30.09;26.16;99336.50;5027492;28;20092;-71
2023/07/18 10:42:35;;;;;;;6.68;3.80;;;;;;;30.41;26.85;99365.75;5025993;28;20046;-71
2023/07/18 10:45:04;;;;;;;7.78;4.78;;;;;;;30.52;28.19;99358.81;5026019;28;20116;-71
2023/07/18 10:47:33;;;;;;;6.78;4.50;;;;;;;30.48;27.75;99358.38;5026278;28;20042;-71
2023/07/18 10:50:03;;;;;;;5.32;4.05;;;;;;;30.56;28.61;99352.69;5026394;28;20074;-71
2023/07/18 10:52:30;;;;;;;6.75;4.78;;;;;;;30.65;26.56;99347.84;5026969;28;20053;-71
2023/07/18 10:54:58;;;;;;;6.30;4.18;;;;;;;30.19;26.98;99246.75;5025788;28;20201;-71
2023/07/18 10:57:27;;;;;;;12.52;4.28;;;;;;;30.33;25.73;99344.13;5026847;28;20104;-71
2023/07/18 10:59:54;;;;;;;5.68;4.28;;;;;;;30.14;25.89;99328.50;5026817;28;20076;-71
2023/07/18 11:02:21;;;;;;;7.47;4.45;;;;;;;30.04;26.24;99326.22;5026824;28;20038;-70
2023/07/18 11:04:50;;;;;;;8.73;3.97;;;;;;;30.06;26.69;99332.31;5009312;28;20048;-70
2023/07/18 11:07:18;;;;;;;6.30;3.67;;;;;;;30.15;26.42;99325.59;5026364;28;20041;-71
2023/07/18 11:09:45;;;;;;;5.53;4.00;;;;;;;29.93;27.26;99280.41;5026248;28;20293;-71
2023/07/18 11:12:18;;;;;;;6.13;5.25;;;;;;;30.39;27.30;99309.63;5026215;28;20049;-70
2023/07/18 11:14:46;;;;;;;6.53;4.82;;;;;;;30.53;27.23;99284.75;5025867;28;20065;-70
2023/07/18 11:17:13;;;;;;;6.97;5.20;;;;;;;30.81;27.45;99317.31;5009364;28;20100;-70
2023/07/18 11:19:41;;;;;;;5.82;4.57;;;;;;;30.54;27.69;99312.94;5026761;28;20100;-70
2023/07/18 11:22:08;;;;;;;5.43;4.43;;;;;;;30.74;27.32;99302.81;5026019;28;20049;-70
2023/07/18 11:24:36;;;;;;;5.80;4.47;;;;;;;30.93;27.81;99301.91;5026558;28;20054;-70
2023/07/18 11:27:17;;;;;;;10.82;4.57;;;;;;;31.01;27.29;99291.75;5025675;28;20041;-69
2023/07/18 11:29:55;;;;;;;6.90;4.28;;;;;;;30.64;28.62;99254.00;5026068;28;20293;-70
2023/07/18 11:32:33;;;;;;;7.25;3.90;;;;;;;29.81;26.51;99198.25;5025488;28;20044;-71
2023/07/18 11:35:00;;;;;;;8.20;5.00;;;;;;;30.67;27.32;99282.81;5025261;28;20057;-70
2023/07/18 11:37:28;;;;;;;5.25;3.42;;;;;;;30.73;27.50;99279.25;5028491;28;20088;-71